createdAt,value
2019-06-07T06:36:14.900Z,11.25
2019-06-07T06:37:14.840Z,11.25
2019-06-07T06:38:14.819Z,16.88
2019-06-07T06:39:14.769Z,16.88
2019-06-07T06:40:14.737Z,16.88
2019-06-07T06:41:16.505Z,16.88
2019-06-07T06:42:14.678Z,16.88
2019-06-07T06:43:14.642Z,16.88
2019-06-07T06:44:14.641Z,16.88
2019-06-07T06:45:14.585Z,16.88
2019-06-07T06:46:25.710Z,16.88
2019-06-07T06:47:14.522Z,16.88
2019-06-07T06:48:14.524Z,16.88
2019-06-07T06:49:14.457Z,16.88
2019-06-07T06:50:14.469Z,16.88
2019-06-07T06:51:14.412Z,16.88
2019-06-07T06:52:14.385Z,16.88
2019-06-07T06:53:14.349Z,16.88
2019-06-07T06:54:14.317Z,16.88
2019-06-07T06:55:14.292Z,22.50
2019-06-07T06:56:14.254Z,16.88
2019-06-07T06:57:19.790Z,22.50
2019-06-07T06:58:14.169Z,22.50
2019-06-07T06:59:37.396Z,16.88
2019-06-07T07:00:14.107Z,16.88
2019-06-07T07:01:14.078Z,16.88
2019-06-07T07:02:14.132Z,16.88
2019-06-07T07:04:14.056Z,16.88
2019-06-07T07:05:13.945Z,16.88
2019-06-07T07:06:25.745Z,16.88
2019-06-07T07:07:13.883Z,16.88
2019-06-07T07:08:13.877Z,16.88
2019-06-07T07:09:13.820Z,16.88
2019-06-07T07:10:13.856Z,16.88
2019-06-07T07:11:13.771Z,16.88
2019-06-07T07:12:15.084Z,16.88
2019-06-07T07:13:13.707Z,16.88
2019-06-07T07:14:13.703Z,16.88
2019-06-07T07:15:13.643Z,16.88
2019-06-07T07:16:13.633Z,16.88
2019-06-07T07:17:13.591Z,11.25
2019-06-07T07:18:13.561Z,11.25
2019-06-07T07:19:13.523Z,11.25
2019-06-07T07:20:13.523Z,16.88
2019-06-07T07:21:13.455Z,16.88
2019-06-07T07:22:13.426Z,11.25
2019-06-07T07:23:13.401Z,11.25
2019-06-07T07:24:21.514Z,11.25
2019-06-07T07:25:13.356Z,11.25
2019-06-07T07:26:13.351Z,11.25
2019-06-07T07:27:13.339Z,11.25
2019-06-07T07:28:13.252Z,11.25
2019-06-07T07:29:13.230Z,11.25
2019-06-07T07:31:13.181Z,16.88
2019-06-07T07:32:13.179Z,16.88
2019-06-07T07:33:13.130Z,11.25
2019-06-07T07:34:31.830Z,16.88
2019-06-07T07:35:13.040Z,16.88
2019-06-07T07:36:28.610Z,16.88
2019-06-07T07:37:12.964Z,16.88
2019-06-07T07:38:12.937Z,16.88
2019-06-07T07:39:12.934Z,16.88
2019-06-07T07:40:55.573Z,16.88
2019-06-07T07:41:15.662Z,16.88
2019-06-07T07:42:20.708Z,16.88
2019-06-07T07:43:12.798Z,16.88
2019-06-07T07:44:12.799Z,16.88
2019-06-07T07:45:12.737Z,16.88
2019-06-07T07:46:29.975Z,16.88
2019-06-07T07:47:12.698Z,16.88
2019-06-07T07:48:17.593Z,16.88
2019-06-07T07:49:12.628Z,16.88
2019-06-07T07:50:12.608Z,16.88
2019-06-07T07:51:12.555Z,16.88
2019-06-07T07:52:12.563Z,16.88
2019-06-07T07:53:12.548Z,16.88
2019-06-07T07:54:12.464Z,16.88
2019-06-07T07:55:12.481Z,16.88
2019-06-07T07:56:12.408Z,16.88
2019-06-07T07:57:12.370Z,16.88
2019-06-07T07:58:12.373Z,16.88
2019-06-07T07:59:12.313Z,16.88
2019-06-07T08:00:49.369Z,16.88
2019-06-07T08:01:12.254Z,16.88
2019-06-07T08:02:12.219Z,16.88
2019-06-07T08:03:12.199Z,16.88
2019-06-07T08:04:12.173Z,16.88
2019-06-07T08:05:22.699Z,16.88
2019-06-07T08:06:12.135Z,16.88
2019-06-07T08:07:12.065Z,16.88
2019-06-07T08:08:12.050Z,16.88
2019-06-07T08:09:12.062Z,16.88
2019-06-07T08:10:12.021Z,16.88
2019-06-07T08:11:12.984Z,16.88
2019-06-07T08:12:11.926Z,16.88
2019-06-07T08:13:24.528Z,16.88
2019-06-07T08:14:11.891Z,16.88
2019-06-07T08:15:11.832Z,16.88
2019-06-07T08:16:16.505Z,16.88
2019-06-07T08:17:11.767Z,16.88
2019-06-07T08:18:11.757Z,16.88
2019-06-07T08:19:13.095Z,16.88
2019-06-07T08:20:11.681Z,16.88
2019-06-07T08:21:24.333Z,16.88
2019-06-07T08:22:11.627Z,16.88
2019-06-07T08:23:11.592Z,16.88
2019-06-07T08:24:11.565Z,16.88
2019-06-07T08:25:11.868Z,16.88
2019-06-07T08:26:11.515Z,16.88
2019-06-07T08:27:25.762Z,16.88
2019-06-07T08:28:11.445Z,16.88
2019-06-07T08:29:11.423Z,16.88
2019-06-07T08:30:46.664Z,16.88
2019-06-07T08:31:11.370Z,16.88
2019-06-07T08:32:11.331Z,16.88
2019-06-07T08:33:25.549Z,16.88
2019-06-07T08:34:11.272Z,16.88
2019-06-07T08:35:11.244Z,16.88
2019-06-07T08:36:19.840Z,22.50
2019-06-07T08:37:11.218Z,22.50
2019-06-07T08:38:25.859Z,22.50
2019-06-07T08:39:11.124Z,22.50
2019-06-07T08:40:11.146Z,22.50
2019-06-07T08:41:12.598Z,22.50
2019-06-07T08:42:15.856Z,22.50
2019-06-07T08:43:19.477Z,22.50
2019-06-07T08:44:23.432Z,22.50
2019-06-07T08:45:11.064Z,22.50
2019-06-07T08:46:10.946Z,22.50
2019-06-07T08:47:19.782Z,22.50
2019-06-07T08:48:26.912Z,22.50
2019-06-07T08:49:10.860Z,22.50
2019-06-07T08:50:10.836Z,22.50
2019-06-07T08:51:10.769Z,22.50
2019-06-07T08:52:12.428Z,22.50
2019-06-07T08:53:12.142Z,22.50
2019-06-07T08:54:22.338Z,22.50
2019-06-07T08:55:10.724Z,22.50
2019-06-07T08:56:11.522Z,22.50
2019-06-07T08:57:20.585Z,22.50
2019-06-07T08:58:10.626Z,22.50
2019-06-07T08:59:11.646Z,22.50
2019-06-07T09:00:42.201Z,22.50
2019-06-07T09:01:10.486Z,22.50
2019-06-07T09:02:23.392Z,22.50
2019-06-07T09:03:10.464Z,22.50
2019-06-07T09:04:11.295Z,22.50
2019-06-07T09:05:12.241Z,28.13
2019-06-07T09:06:53.947Z,28.13
2019-06-07T09:07:19.193Z,28.13
2019-06-07T09:08:28.731Z,28.13
2019-06-07T09:09:10.366Z,28.13
2019-06-07T09:10:14.371Z,28.13
2019-06-07T09:11:11.515Z,28.13
2019-06-07T09:12:11.531Z,28.13
2019-06-07T09:13:11.652Z,33.75
2019-06-07T09:14:10.104Z,28.13
2019-06-07T09:15:20.175Z,33.75
2019-06-07T09:16:10.055Z,28.13
2019-06-07T09:17:12.352Z,28.13
2019-06-07T09:18:37.935Z,33.75
2019-06-07T09:19:11.039Z,28.13
2019-06-07T09:20:32.649Z,28.13
2019-06-07T09:21:10.129Z,28.13
2019-06-07T09:22:11.447Z,33.75
2019-06-07T09:23:16.638Z,22.50
2019-06-07T09:24:11.711Z,28.13
2019-06-07T09:25:20.171Z,28.13
2019-06-07T09:26:17.644Z,28.13
2019-06-07T09:27:10.479Z,28.13
2019-06-07T09:28:18.739Z,28.13
2019-06-07T09:29:11.872Z,28.13
2019-06-07T09:30:16.291Z,28.13
2019-06-07T09:31:12.327Z,28.13
2019-06-07T09:32:12.109Z,28.13
2019-06-07T09:33:09.579Z,28.13
2019-06-07T09:34:13.916Z,28.13
2019-06-07T09:35:16.444Z,28.13
2019-06-07T09:36:12.930Z,28.13
2019-06-07T09:37:55.313Z,28.13
2019-06-07T09:38:25.402Z,33.75
2019-06-07T09:40:24.313Z,33.75
2019-06-07T09:41:13.816Z,33.75
2019-06-07T09:42:13.795Z,33.75
2019-06-07T09:44:24.142Z,33.75
2019-06-07T09:45:14.202Z,33.75
2019-06-07T09:46:16.049Z,39.38
2019-06-07T09:47:31.154Z,39.38
2019-06-07T09:48:23.917Z,39.38
2019-06-07T09:49:28.234Z,39.38
2019-06-07T09:50:13.552Z,45.00
2019-06-07T09:51:19.784Z,45.00
2019-06-07T09:52:13.504Z,45.00
2019-06-07T09:53:22.404Z,45.00
2019-06-07T09:55:02.391Z,45.00
2019-06-07T09:55:23.532Z,50.63
2019-06-07T09:56:13.392Z,61.88
2019-06-07T09:57:17.549Z,67.50
2019-06-07T09:59:13.311Z,106.88
2019-06-07T10:00:38.621Z,106.88
2019-06-07T10:01:14.101Z,106.88
2019-06-07T10:02:13.829Z,106.88
2019-06-07T10:03:21.220Z,95.63
2019-06-07T10:04:28.485Z,101.25
2019-06-07T10:05:14.402Z,101.25
2019-06-07T10:06:13.889Z,101.25
2019-06-07T10:07:30.729Z,101.25
2019-06-07T10:09:01.012Z,101.25
2019-06-07T10:11:12.993Z,101.25
2019-06-07T10:12:12.968Z,101.25
2019-06-07T10:13:12.956Z,101.25
2019-06-07T10:14:12.938Z,101.25
2019-06-07T10:15:12.894Z,101.25
2019-06-07T10:16:12.868Z,106.88
2019-06-07T10:17:12.836Z,106.88
2019-06-07T10:18:12.807Z,106.88
2019-06-07T10:19:12.792Z,106.88
2019-06-07T10:20:12.778Z,106.88
2019-06-07T10:21:15.162Z,106.88
2019-06-07T10:22:12.704Z,106.88
2019-06-07T10:23:12.676Z,106.88
2019-06-07T10:24:12.657Z,106.88
2019-06-07T10:25:12.625Z,106.88
2019-06-07T10:26:12.614Z,106.88
2019-06-07T10:27:12.593Z,106.88
2019-06-07T10:28:12.560Z,112.50
2019-06-07T10:29:12.534Z,112.50
2019-06-07T10:30:12.503Z,112.50
2019-06-07T10:31:12.509Z,112.50
2019-06-07T10:32:12.462Z,112.50
2019-06-07T10:33:12.440Z,112.50
2019-06-07T10:34:12.422Z,112.50
2019-06-07T10:35:15.983Z,118.13
2019-06-07T10:36:12.367Z,118.13
2019-06-07T10:37:15.638Z,112.50
2019-06-07T10:38:12.313Z,118.13
2019-06-07T10:39:12.296Z,118.13
2019-06-07T10:40:12.297Z,118.13
2019-06-07T10:41:12.245Z,112.50
2019-06-07T10:42:12.222Z,112.50
2019-06-07T10:43:14.398Z,112.50
2019-06-07T10:44:12.180Z,112.50
2019-06-07T10:45:12.372Z,112.50
2019-06-07T10:46:12.220Z,112.50
2019-06-07T10:47:12.358Z,112.50
2019-06-07T10:48:12.088Z,112.50
2019-06-07T10:49:12.271Z,112.50
2019-06-07T10:50:12.284Z,112.50
2019-06-07T10:51:14.576Z,112.50
2019-06-07T10:52:13.264Z,112.50
2019-06-07T10:53:12.600Z,112.50
2019-06-07T10:54:24.693Z,106.88
2019-06-07T10:55:12.690Z,106.88
2019-06-07T10:56:13.320Z,106.88
2019-06-07T10:57:14.552Z,106.88
2019-06-07T10:58:13.181Z,106.88
2019-06-07T10:59:12.303Z,112.50
2019-06-07T11:00:11.854Z,112.50
2019-06-07T11:01:12.901Z,118.13
2019-06-07T11:02:11.966Z,118.13
2019-06-07T11:03:11.889Z,84.38
2019-06-07T11:04:11.828Z,67.50
2019-06-07T11:05:20.913Z,67.50
2019-06-07T11:07:06.447Z,61.88
2019-06-07T11:08:05.979Z,67.50
2019-06-07T11:09:05.912Z,78.75
2019-06-07T11:10:09.379Z,90.00
2019-06-07T11:11:05.998Z,50.63
2019-06-07T11:12:06.293Z,84.38
2019-06-07T11:13:06.036Z,101.25
2019-06-07T11:14:06.323Z,95.63
2019-06-07T11:15:04.871Z,90.00
2019-06-07T11:16:04.838Z,90.00
2019-06-07T11:17:05.160Z,90.00
2019-06-07T11:18:06.117Z,90.00
2019-06-07T11:19:06.034Z,90.00
2019-06-07T11:20:05.978Z,90.00
2019-06-07T11:21:06.001Z,90.00
2019-06-07T11:22:05.980Z,90.00
2019-06-07T11:23:06.615Z,90.00
2019-06-07T11:24:06.038Z,90.00
2019-06-07T11:25:06.767Z,90.00
2019-06-07T11:26:04.887Z,90.00
2019-06-07T11:27:04.587Z,95.63
2019-06-07T11:28:04.574Z,95.63
2019-06-07T11:29:04.552Z,95.63
2019-06-07T11:30:04.552Z,95.63
2019-06-07T11:31:04.505Z,95.63
2019-06-07T11:32:04.482Z,106.88
2019-06-07T11:33:04.471Z,106.88
2019-06-07T11:34:04.462Z,90.00
2019-06-07T11:35:04.438Z,50.63
2019-06-07T11:36:04.393Z,56.25
2019-06-07T11:37:04.406Z,67.50
2019-06-07T11:38:04.368Z,90.00
2019-06-07T11:39:04.343Z,67.50
2019-06-07T11:40:04.318Z,50.63
2019-06-07T11:41:04.308Z,67.50
2019-06-07T11:42:05.609Z,56.25
2019-06-07T11:43:04.233Z,112.50
2019-06-07T11:44:04.215Z,45.00
2019-06-07T11:45:04.193Z,45.00
2019-06-07T11:46:04.181Z,50.63
2019-06-07T11:47:04.153Z,112.50
2019-06-07T11:48:04.139Z,101.25
2019-06-07T11:49:04.126Z,95.63
2019-06-07T11:50:04.094Z,95.63
2019-06-07T11:51:04.067Z,95.63
2019-06-07T11:52:04.061Z,95.63
2019-06-07T11:53:04.055Z,95.63
2019-06-07T11:54:04.021Z,95.63
2019-06-07T11:55:03.982Z,101.25
2019-06-07T11:56:03.955Z,101.25
2019-06-07T11:57:03.938Z,101.25
2019-06-07T11:58:03.906Z,101.25
2019-06-07T11:59:03.901Z,101.25
2019-06-07T12:00:03.879Z,101.25
2019-06-07T12:01:03.845Z,101.25
2019-06-07T12:02:03.819Z,101.25
2019-06-07T12:03:03.798Z,106.88
2019-06-07T12:04:03.789Z,112.50
2019-06-07T12:05:03.764Z,112.50
2019-06-07T12:06:03.731Z,45.00
2019-06-07T12:07:03.738Z,118.13
2019-06-07T12:08:03.678Z,118.13
2019-06-07T12:09:03.664Z,45.00
2019-06-07T12:10:03.648Z,56.25
2019-06-07T12:11:03.641Z,129.38
2019-06-07T12:12:03.614Z,61.88
2019-06-07T12:13:03.589Z,118.13
2019-06-07T12:14:03.554Z,118.13
2019-06-07T12:15:03.539Z,123.75
2019-06-07T12:16:03.524Z,123.75
2019-06-07T12:17:03.510Z,123.75
2019-06-07T12:18:03.495Z,123.75
2019-06-07T12:19:03.451Z,50.63
2019-06-07T12:20:03.481Z,73.13
2019-06-07T12:21:03.419Z,129.38
2019-06-07T12:22:03.388Z,129.38
2019-06-07T12:23:03.371Z,129.38
2019-06-07T12:24:03.421Z,73.13
2019-06-07T12:25:05.822Z,123.75
2019-06-07T12:26:03.318Z,123.75
2019-06-07T12:27:03.293Z,123.75
2019-06-07T12:28:03.300Z,123.75
2019-06-07T12:29:03.256Z,123.75
2019-06-07T12:30:09.820Z,95.63
2019-06-07T12:31:03.239Z,129.38
2019-06-07T12:32:03.181Z,129.38
2019-06-07T12:33:03.165Z,123.75
2019-06-07T12:34:03.157Z,123.75
2019-06-07T12:35:03.135Z,129.38
2019-06-07T12:36:03.109Z,135.00
2019-06-07T12:37:03.086Z,135.00
2019-06-07T12:38:03.047Z,90.00
2019-06-07T12:39:03.046Z,84.38
2019-06-07T12:40:03.031Z,73.13
2019-06-07T12:41:03.034Z,61.88
2019-06-07T12:42:02.983Z,61.88
2019-06-07T12:43:02.965Z,45.00
2019-06-07T12:44:03.003Z,39.38
2019-06-07T12:45:02.985Z,45.00
2019-06-07T12:46:02.887Z,56.25
2019-06-07T12:47:02.935Z,50.63
2019-06-07T12:48:03.001Z,45.00
2019-06-07T12:49:02.830Z,45.00
2019-06-07T12:50:02.795Z,45.00
2019-06-07T12:51:02.792Z,45.00
2019-06-07T12:52:02.763Z,45.00
2019-06-07T12:53:02.742Z,45.00
2019-06-07T12:54:02.736Z,45.00
2019-06-07T12:55:02.695Z,39.38
2019-06-07T12:56:02.676Z,39.38
2019-06-07T12:57:02.672Z,39.38
2019-06-07T12:58:02.631Z,33.75
2019-06-07T12:59:02.610Z,33.75
2019-06-07T13:00:02.972Z,33.75
2019-06-07T13:01:02.563Z,33.75
2019-06-07T13:02:02.755Z,33.75
2019-06-07T13:03:02.516Z,39.38
2019-06-07T13:04:02.519Z,39.38
2019-06-07T13:05:04.632Z,39.38
2019-06-07T13:06:02.462Z,39.38
2019-06-07T13:07:02.431Z,45.00
2019-06-07T13:08:02.396Z,67.50
2019-06-07T13:09:11.033Z,67.50
2019-06-07T13:11:17.324Z,151.88
2019-06-07T13:12:06.768Z,163.13
2019-06-07T13:13:06.739Z,174.38
2019-06-07T13:14:06.719Z,157.50
2019-06-07T13:15:06.701Z,78.75
2019-06-07T13:16:06.714Z,84.38
2019-06-07T13:17:06.645Z,140.63
2019-06-07T13:18:06.633Z,163.13
2019-06-07T13:19:06.596Z,157.50
2019-06-07T13:20:06.587Z,151.88
2019-06-07T13:21:06.552Z,151.88
2019-06-07T13:22:06.533Z,101.25
2019-06-07T13:23:06.512Z,61.88
2019-06-07T13:24:06.506Z,61.88
2019-06-07T13:25:06.467Z,67.50
2019-06-07T13:26:06.438Z,90.00
2019-06-07T13:27:06.413Z,118.13
2019-06-07T13:28:06.390Z,168.75
2019-06-07T13:29:06.360Z,67.50
2019-06-07T13:30:10.287Z,168.75
2019-06-07T13:31:06.368Z,56.25
2019-06-07T13:32:06.300Z,56.25
2019-06-07T13:33:06.283Z,56.25
2019-06-07T13:34:06.274Z,61.88
2019-06-07T13:35:06.249Z,157.50
2019-06-07T13:36:06.286Z,50.63
2019-06-07T13:37:06.222Z,45.00
2019-06-07T13:38:06.184Z,39.38
2019-06-07T13:39:06.169Z,45.00
2019-06-07T13:40:06.135Z,50.63
2019-06-07T13:41:06.085Z,50.63
2019-06-07T13:42:06.097Z,50.63
2019-06-07T13:43:06.050Z,61.88
2019-06-07T13:44:06.045Z,151.88
2019-06-07T13:45:06.009Z,151.88
2019-06-07T13:46:05.980Z,73.13
2019-06-07T13:47:05.970Z,61.88
2019-06-07T13:48:05.944Z,61.88
2019-06-07T13:49:05.935Z,61.88
2019-06-07T13:50:05.900Z,61.88
2019-06-07T13:51:05.865Z,61.88
2019-06-07T13:52:05.858Z,157.50
2019-06-07T13:53:05.810Z,151.88
2019-06-07T13:54:05.801Z,146.25
2019-06-07T13:55:05.789Z,90.00
2019-06-07T13:56:05.756Z,140.63
2019-06-07T13:57:05.760Z,146.25
2019-06-07T13:58:05.711Z,151.88
2019-06-07T13:59:05.677Z,118.13
2019-06-07T14:00:10.449Z,129.38
2019-06-07T14:01:05.642Z,151.88
2019-06-07T14:02:05.625Z,151.88
2019-06-07T14:03:05.608Z,56.25
2019-06-07T14:04:05.560Z,50.63
2019-06-07T14:05:05.573Z,151.88
2019-06-07T14:06:05.515Z,151.88
2019-06-07T14:07:14.154Z,146.25
2019-06-07T14:09:09.926Z,140.63
2019-06-07T14:10:11.565Z,140.63
2019-06-07T14:11:09.856Z,140.63
2019-06-07T14:12:09.837Z,140.63
2019-06-07T14:13:09.806Z,112.50
2019-06-07T14:14:09.797Z,140.63
2019-06-07T14:15:09.772Z,45.00
2019-06-07T14:16:09.761Z,146.25
2019-06-07T14:17:09.738Z,129.38
2019-06-07T14:18:09.716Z,61.88
2019-06-07T14:19:09.691Z,39.38
2019-06-07T14:20:10.566Z,33.75
2019-06-07T14:21:09.632Z,33.75
2019-06-07T14:22:09.628Z,33.75
2019-06-07T14:23:09.602Z,28.13
2019-06-07T14:24:09.577Z,28.13
2019-06-07T14:25:09.562Z,28.13
2019-06-07T14:26:09.532Z,33.75
2019-06-07T14:27:09.513Z,33.75
2019-06-07T14:28:11.801Z,22.50
2019-06-07T14:29:09.472Z,22.50
2019-06-07T14:30:09.451Z,16.88
2019-06-07T14:31:09.424Z,16.88
2019-06-07T14:32:09.414Z,11.25
2019-06-07T14:33:09.374Z,11.25
2019-06-07T14:34:09.362Z,11.25
2019-06-07T14:35:09.335Z,11.25
2019-06-07T14:36:09.307Z,5.63
2019-06-07T14:37:09.284Z,5.63
2019-06-07T14:38:09.268Z,5.63
2019-06-07T14:39:09.247Z,5.63
2019-06-07T14:40:09.218Z,5.63
2019-06-07T14:41:09.201Z,5.63
2019-06-07T14:42:10.440Z,5.63
2019-06-07T14:43:09.168Z,5.63
2019-06-07T14:44:09.129Z,11.25
2019-06-07T14:45:09.107Z,11.25
2019-06-07T14:46:09.080Z,11.25
2019-06-07T14:47:09.054Z,11.25
2019-06-07T14:48:09.024Z,11.25
2019-06-07T14:49:09.004Z,11.25
2019-06-07T14:50:08.989Z,5.63
2019-06-07T14:51:08.968Z,5.63
2019-06-07T14:52:08.923Z,5.63
2019-06-07T14:53:08.919Z,5.63
2019-06-07T14:54:08.888Z,5.63
2019-06-07T14:55:08.868Z,0.00
2019-06-07T14:56:08.839Z,0.00
2019-06-07T14:57:08.838Z,0.00
2019-06-07T14:58:08.789Z,0.00
2019-06-07T14:59:08.760Z,0.00
2019-06-07T15:00:11.468Z,0.00
2019-06-07T15:01:08.711Z,0.00
2019-06-07T15:02:08.692Z,0.00
2019-06-07T15:03:08.659Z,0.00
2019-06-07T15:04:08.639Z,0.00
2019-06-07T15:05:08.627Z,0.00
2019-06-07T15:06:08.594Z,0.00
2019-06-07T15:07:08.569Z,0.00
2019-06-07T15:08:08.581Z,0.00
2019-06-07T15:09:08.516Z,0.00
2019-06-07T15:10:08.481Z,0.00
2019-06-07T15:11:08.459Z,0.00
2019-06-07T15:12:23.915Z,0.00
2019-06-07T15:13:08.420Z,0.00
2019-06-07T15:14:08.384Z,0.00
2019-06-07T15:15:08.360Z,0.00
2019-06-07T15:16:08.327Z,0.00
2019-06-07T15:17:08.309Z,0.00
2019-06-07T15:18:08.291Z,0.00
2019-06-07T15:19:08.271Z,0.00
2019-06-07T15:20:08.238Z,5.63
2019-06-07T15:21:08.201Z,5.63
2019-06-07T15:22:08.189Z,5.63
2019-06-07T15:23:08.157Z,11.25
2019-06-07T15:24:08.124Z,16.88
2019-06-07T15:25:08.104Z,16.88
2019-06-07T15:26:08.071Z,22.50
2019-06-07T15:27:08.045Z,22.50
2019-06-07T15:28:08.016Z,22.50
2019-06-07T15:29:07.992Z,22.50
2019-06-07T15:30:10.228Z,22.50
2019-06-07T15:31:07.953Z,22.50
2019-06-07T15:32:07.906Z,22.50
2019-06-07T15:33:07.899Z,28.13
2019-06-07T15:34:07.856Z,33.75
2019-06-07T15:35:07.828Z,39.38
2019-06-07T15:36:07.831Z,33.75
2019-06-07T15:37:07.766Z,39.38
2019-06-07T15:38:07.747Z,56.25
2019-06-07T15:39:07.719Z,118.13
2019-06-07T15:40:07.683Z,196.88
2019-06-07T15:41:07.669Z,208.13
2019-06-07T15:42:07.641Z,112.50
2019-06-07T15:43:07.606Z,61.88
2019-06-07T15:44:07.936Z,213.75
2019-06-07T15:45:07.557Z,151.88
2019-06-07T15:46:07.537Z,202.50
2019-06-07T15:47:07.496Z,67.50
2019-06-07T15:48:07.467Z,84.38
2019-06-07T15:49:07.463Z,39.38
2019-06-07T15:50:07.411Z,73.13
2019-06-07T15:51:07.383Z,67.50
2019-06-07T15:52:07.360Z,106.88
2019-06-07T15:53:07.342Z,78.75
2019-06-07T15:54:07.443Z,202.50
2019-06-07T15:55:07.270Z,73.13
2019-06-07T15:56:07.257Z,202.50
2019-06-07T15:57:07.227Z,157.50
2019-06-07T15:58:07.196Z,196.88
2019-06-07T15:59:07.163Z,196.88
2019-06-07T16:00:07.138Z,191.25
2019-06-07T16:01:07.104Z,67.50
2019-06-07T16:02:07.086Z,196.88
2019-06-07T16:03:07.056Z,196.88
2019-06-07T16:04:07.031Z,78.75
2019-06-07T16:05:07.076Z,56.25
2019-06-07T16:06:07.041Z,39.38
2019-06-07T16:07:06.949Z,28.13
2019-06-07T16:08:06.919Z,28.13
2019-06-07T16:09:06.896Z,33.75
2019-06-07T16:10:06.867Z,39.38
2019-06-07T16:11:06.837Z,61.88
2019-06-07T16:12:06.803Z,56.25
2019-06-07T16:13:06.778Z,33.75
2019-06-07T16:14:06.802Z,28.13
2019-06-07T16:15:06.714Z,22.50
2019-06-07T16:16:06.745Z,28.13
2019-06-07T16:17:06.686Z,33.75
2019-06-07T16:18:06.638Z,39.38
2019-06-07T16:19:06.612Z,28.13
2019-06-07T16:20:06.593Z,28.13
2019-06-07T16:21:06.564Z,28.13
2019-06-07T16:22:06.534Z,22.50
2019-06-07T16:23:06.514Z,28.13
2019-06-07T16:24:06.471Z,16.88
2019-06-07T16:25:06.450Z,22.50
2019-06-07T16:26:06.411Z,22.50
2019-06-07T16:27:06.395Z,28.13
2019-06-07T16:28:06.443Z,28.13
2019-06-07T16:29:06.321Z,39.38
2019-06-07T16:30:09.350Z,56.25
2019-06-07T16:31:06.271Z,39.38
2019-06-07T16:32:06.234Z,28.13
2019-06-07T16:33:06.212Z,33.75
2019-06-07T16:34:06.185Z,33.75
2019-06-07T16:35:06.160Z,56.25
2019-06-07T16:36:06.134Z,67.50
2019-06-07T16:37:06.086Z,33.75
2019-06-07T16:38:06.076Z,39.38
2019-06-07T16:39:06.059Z,45.00
2019-06-07T16:40:06.020Z,39.38
2019-06-07T16:41:05.985Z,39.38
2019-06-07T16:42:05.958Z,95.63
2019-06-07T16:43:16.701Z,73.13
2019-06-07T16:44:05.898Z,118.13
2019-06-07T16:45:05.882Z,22.50
2019-06-07T16:46:05.856Z,22.50
2019-06-07T16:47:05.802Z,16.88
2019-06-07T16:48:05.791Z,11.25
2019-06-07T16:49:05.761Z,11.25
2019-06-07T16:50:05.724Z,11.25
2019-06-07T16:51:05.695Z,16.88
2019-06-07T16:52:05.663Z,22.50
2019-06-07T16:53:05.632Z,16.88
2019-06-07T16:54:05.605Z,11.25
2019-06-07T16:55:05.578Z,11.25
2019-06-07T16:56:05.551Z,11.25
2019-06-07T16:57:05.526Z,5.63
2019-06-07T16:58:05.485Z,5.63
2019-06-07T16:59:05.456Z,5.63
2019-06-07T17:00:05.441Z,5.63
2019-06-07T17:01:05.400Z,5.63
2019-06-07T17:02:05.371Z,5.63
2019-06-07T17:03:05.341Z,5.63
2019-06-07T17:04:05.313Z,5.63
2019-06-07T17:05:05.281Z,5.63
2019-06-07T17:06:05.261Z,5.63
2019-06-07T17:07:05.222Z,0.00
2019-06-07T17:08:05.213Z,0.00
2019-06-07T17:09:05.163Z,0.00
2019-06-07T17:10:05.143Z,0.00
2019-06-07T17:11:05.926Z,0.00
2019-06-07T17:12:05.077Z,0.00
2019-06-07T17:13:05.047Z,5.63
2019-06-07T17:14:05.018Z,5.63
2019-06-07T17:15:04.983Z,5.63
2019-06-07T17:16:04.966Z,11.25
2019-06-07T17:17:04.940Z,11.25
2019-06-07T17:18:04.922Z,11.25
2019-06-07T17:19:04.889Z,11.25
2019-06-07T17:20:04.839Z,11.25
2019-06-07T17:21:04.811Z,11.25
2019-06-07T17:22:05.422Z,11.25
2019-06-07T17:23:04.768Z,11.25
2019-06-07T17:24:04.713Z,11.25
2019-06-07T17:25:04.707Z,11.25
2019-06-07T17:26:04.671Z,11.25
2019-06-07T17:27:04.632Z,11.25
2019-06-07T17:28:04.602Z,11.25
2019-06-07T17:29:04.567Z,11.25
2019-06-07T17:30:04.548Z,11.25
2019-06-07T17:31:04.510Z,11.25
2019-06-07T17:32:04.547Z,11.25
2019-06-07T17:33:04.457Z,11.25
2019-06-07T17:34:04.429Z,11.25
2019-06-07T17:35:04.394Z,11.25
2019-06-07T17:36:04.359Z,11.25
2019-06-07T17:37:04.335Z,11.25
2019-06-07T17:38:04.304Z,5.63
2019-06-07T17:39:04.268Z,5.63
2019-06-07T17:40:04.243Z,5.63
2019-06-07T17:41:04.224Z,5.63
2019-06-07T17:42:04.193Z,5.63
2019-06-07T17:43:04.162Z,5.63
2019-06-07T17:44:04.134Z,5.63
2019-06-07T17:45:04.089Z,5.63
2019-06-07T17:46:04.080Z,5.63
2019-06-07T17:47:04.036Z,5.63
2019-06-07T17:48:04.047Z,5.63
2019-06-07T17:49:03.987Z,5.63
2019-06-07T17:50:04.042Z,5.63
2019-06-07T17:51:03.915Z,5.63
2019-06-07T17:52:03.886Z,5.63
2019-06-07T17:53:03.871Z,11.25
2019-06-07T17:54:03.830Z,11.25
2019-06-07T17:55:03.790Z,11.25
2019-06-07T17:56:03.767Z,11.25
2019-06-07T17:57:03.752Z,11.25
2019-06-07T17:58:03.724Z,5.63
2019-06-07T17:59:03.681Z,5.63
2019-06-07T18:00:27.599Z,5.63
2019-06-07T18:01:03.629Z,5.63
2019-06-07T18:02:14.329Z,5.63
2019-06-07T18:03:03.556Z,5.63
2019-06-07T18:04:03.517Z,5.63
2019-06-07T18:05:03.501Z,5.63
2019-06-07T18:06:03.467Z,5.63
2019-06-07T18:07:03.435Z,5.63
2019-06-07T18:08:03.406Z,5.63
2019-06-07T18:09:03.378Z,5.63
2019-06-07T18:10:03.929Z,5.63
2019-06-07T18:11:03.317Z,5.63
2019-06-07T18:12:03.282Z,5.63
2019-06-07T18:13:03.264Z,5.63
2019-06-07T18:14:10.555Z,5.63
2019-06-07T18:15:03.203Z,5.63
2019-06-07T18:16:03.177Z,5.63
2019-06-07T18:17:03.137Z,5.63
2019-06-07T18:18:03.103Z,5.63
2019-06-07T18:19:03.074Z,0.00
2019-06-07T18:20:03.042Z,0.00
2019-06-07T18:21:03.018Z,0.00
2019-06-07T18:22:02.994Z,0.00
2019-06-07T18:23:02.961Z,0.00
2019-06-07T18:24:02.931Z,0.00
2019-06-07T18:25:02.911Z,0.00
2019-06-07T18:26:02.870Z,0.00
2019-06-07T18:27:02.862Z,0.00
2019-06-07T18:28:02.805Z,0.00
2019-06-07T18:29:02.771Z,0.00
2019-06-07T18:30:11.295Z,0.00
2019-06-07T18:31:02.718Z,0.00
2019-06-07T18:32:02.680Z,0.00
2019-06-07T18:33:02.648Z,0.00
2019-06-07T18:34:02.634Z,0.00
2019-06-07T18:35:02.588Z,0.00
2019-06-07T18:36:02.563Z,0.00
2019-06-07T18:37:02.526Z,0.00
2019-06-07T18:38:02.500Z,0.00
2019-06-07T18:39:02.469Z,0.00
2019-06-07T18:40:02.448Z,0.00
2019-06-07T18:41:02.424Z,0.00
2019-06-07T18:42:02.384Z,0.00
2019-06-07T18:43:02.423Z,0.00
2019-06-07T18:44:02.331Z,0.00
2019-06-07T18:45:02.328Z,0.00
2019-06-07T18:46:02.259Z,0.00
2019-06-07T18:47:02.265Z,0.00
2019-06-07T18:48:02.194Z,0.00
2019-06-07T18:49:02.175Z,0.00
2019-06-07T18:50:02.147Z,0.00
2019-06-07T18:51:02.105Z,0.00
2019-06-07T18:52:02.087Z,0.00
2019-06-07T18:53:02.049Z,0.00
2019-06-07T18:54:02.035Z,5.63
2019-06-07T18:55:01.989Z,5.63
2019-06-07T18:56:02.010Z,5.63
2019-06-07T18:57:01.926Z,5.63
2019-06-07T18:58:01.898Z,5.63
2019-06-07T18:59:01.878Z,5.63
2019-06-07T19:00:01.869Z,5.63
2019-06-07T19:01:01.807Z,5.63
2019-06-07T19:02:01.802Z,0.00
2019-06-07T19:03:01.752Z,0.00
2019-06-07T19:04:01.722Z,0.00
2019-06-07T19:05:01.692Z,0.00
2019-06-07T19:06:01.660Z,0.00
2019-06-07T19:07:01.638Z,0.00
2019-06-07T19:08:01.606Z,0.00
2019-06-07T19:09:01.563Z,0.00
2019-06-07T19:10:01.551Z,0.00
2019-06-07T19:11:01.508Z,0.00
2019-06-07T19:12:01.467Z,0.00
2019-06-07T19:13:01.445Z,0.00
2019-06-07T19:14:01.416Z,5.63
2019-06-07T19:15:01.462Z,5.63
2019-06-07T19:16:01.365Z,0.00
2019-06-07T19:17:01.319Z,0.00
2019-06-07T19:18:01.291Z,0.00
2019-06-07T19:19:01.266Z,0.00
2019-06-07T19:20:01.234Z,0.00
2019-06-07T19:21:01.208Z,0.00
2019-06-07T19:22:01.231Z,0.00
2019-06-07T19:23:01.133Z,0.00
2019-06-07T19:24:01.122Z,0.00
2019-06-07T19:25:01.091Z,0.00
2019-06-07T19:26:01.050Z,0.00
2019-06-07T19:27:01.026Z,0.00
2019-06-07T19:28:01.176Z,0.00
2019-06-07T19:29:00.998Z,0.00
2019-06-07T19:30:01.096Z,0.00
2019-06-07T19:31:01.280Z,0.00
2019-06-07T19:32:01.238Z,0.00
2019-06-07T19:33:01.547Z,0.00
2019-06-07T19:34:01.365Z,0.00
2019-06-07T19:35:01.634Z,0.00
2019-06-07T19:36:01.774Z,0.00
2019-06-07T19:37:02.023Z,0.00
2019-06-07T19:38:02.062Z,0.00
2019-06-07T19:39:02.011Z,0.00